sensor_id;sensor_type;location;lat;lon;timestamp;P1;durP1;ratioP1;P2;durP2;ratioP2
39740;SDS011;25426;53.478;10.190;2022-09-09T00:02:01;233.48;;;39.72;;
39740;SDS011;25426;53.478;10.190;2022-09-09T00:07:53;255.90;;;43.38;;
39740;SDS011;25426;53.478;10.190;2022-09-09T00:10:33;372.48;;;50.97;;
39740;SDS011;25426;53.478;10.190;2022-09-09T00:13:19;203.13;;;36.95;;
39740;SDS011;25426;53.478;10.190;2022-09-09T00:16:24;125.80;;;32.83;;
39740;SDS011;25426;53.478;10.190;2022-09-09T00:25:54;363.10;;;49.55;;
39740;SDS011;25426;53.478;10.190;2022-09-09T00:28:13;407.15;;;51.30;;
39740;SDS011;25426;53.478;10.190;2022-09-09T00:30:50;206.38;;;37.25;;
39740;SDS011;25426;53.478;10.190;2022-09-09T00:33:22;173.43;;;36.55;;
39740;SDS011;25426;53.478;10.190;2022-09-09T00:35:56;146.85;;;36.33;;
39740;SDS011;25426;53.478;10.190;2022-09-09T00:38:31;132.30;;;34.97;;
39740;SDS011;25426;53.478;10.190;2022-09-09T00:41:15;142.32;;;33.28;;
39740;SDS011;25426;53.478;10.190;2022-09-09T00:44:12;211.73;;;39.95;;
39740;SDS011;25426;53.478;10.190;2022-09-09T00:53:28;129.77;;;35.33;;
39740;SDS011;25426;53.478;10.190;2022-09-09T00:56:27;89.32;;;30.40;;
39740;SDS011;25426;53.478;10.190;2022-09-09T00:59:28;323.95;;;46.90;;
39740;SDS011;25426;53.478;10.190;2022-09-09T01:02:20;73.10;;;27.90;;
39740;SDS011;25426;53.478;10.190;2022-09-09T01:08:06;160.82;;;36.30;;
39740;SDS011;25426;53.478;10.190;2022-09-09T01:11:17;108.68;;;31.83;;
39740;SDS011;25426;53.478;10.190;2022-09-09T01:13:58;192.85;;;36.92;;
39740;SDS011;25426;53.478;10.190;2022-09-09T01:16:44;67.13;;;29.10;;
39740;SDS011;25426;53.478;10.190;2022-09-09T01:19:24;98.50;;;32.05;;
39740;SDS011;25426;53.478;10.190;2022-09-09T01:26:19;73.07;;;28.95;;
39740;SDS011;25426;53.478;10.190;2022-09-09T01:29:00;110.35;;;32.78;;
39740;SDS011;25426;53.478;10.190;2022-09-09T01:31:39;58.92;;;28.35;;
39740;SDS011;25426;53.478;10.190;2022-09-09T01:34:36;89.82;;;32.10;;
39740;SDS011;25426;53.478;10.190;2022-09-09T01:37:10;113.22;;;34.53;;
39740;SDS011;25426;53.478;10.190;2022-09-09T01:39:43;133.43;;;35.28;;
39740;SDS011;25426;53.478;10.190;2022-09-09T01:42:17;81.07;;;30.20;;
39740;SDS011;25426;53.478;10.190;2022-09-09T01:44:49;166.75;;;38.88;;
39740;SDS011;25426;53.478;10.190;2022-09-09T01:47:20;161.68;;;37.83;;
39740;SDS011;25426;53.478;10.190;2022-09-09T01:50:24;271.48;;;42.80;;
39740;SDS011;25426;53.478;10.190;2022-09-09T01:52:59;76.55;;;28.42;;
39740;SDS011;25426;53.478;10.190;2022-09-09T01:55:40;184.98;;;39.38;;
39740;SDS011;25426;53.478;10.190;2022-09-09T02:04:54;79.32;;;27.63;;
39740;SDS011;25426;53.478;10.190;2022-09-09T02:07:42;139.68;;;31.35;;
39740;SDS011;25426;53.478;10.190;2022-09-09T02:13:54;95.28;;;29.48;;
39740;SDS011;25426;53.478;10.190;2022-09-09T02:17:09;108.85;;;28.02;;
39740;SDS011;25426;53.478;10.190;2022-09-09T02:20:05;135.98;;;29.38;;
39740;SDS011;25426;53.478;10.190;2022-09-09T02:22:55;317.98;;;40.20;;
39740;SDS011;25426;53.478;10.190;2022-09-09T02:25:28;84.93;;;27.15;;
39740;SDS011;25426;53.478;10.190;2022-09-09T02:28:06;75.03;;;24.92;;
39740;SDS011;25426;53.478;10.190;2022-09-09T02:30:39;150.48;;;28.10;;
39740;SDS011;25426;53.478;10.190;2022-09-09T02:33:11;170.77;;;30.90;;
39740;SDS011;25426;53.478;10.190;2022-09-09T02:35:54;89.15;;;23.85;;
39740;SDS011;25426;53.478;10.190;2022-09-09T02:38:34;169.90;;;31.05;;
39740;SDS011;25426;53.478;10.190;2022-09-09T02:41:15;168.13;;;30.48;;
39740;SDS011;25426;53.478;10.190;2022-09-09T02:43:53;128.52;;;27.05;;
39740;SDS011;25426;53.478;10.190;2022-09-09T02:46:32;135.48;;;28.33;;
39740;SDS011;25426;53.478;10.190;2022-09-09T02:52:42;117.30;;;28.15;;
39740;SDS011;25426;53.478;10.190;2022-09-09T02:55:38;186.30;;;33.90;;
39740;SDS011;25426;53.478;10.190;2022-09-09T02:58:26;112.47;;;27.27;;
39740;SDS011;25426;53.478;10.190;2022-09-09T03:01:02;194.65;;;31.83;;
39740;SDS011;25426;53.478;10.190;2022-09-09T03:03:34;221.95;;;36.05;;
39740;SDS011;25426;53.478;10.190;2022-09-09T03:06:10;99.53;;;27.55;;
39740;SDS011;25426;53.478;10.190;2022-09-09T03:08:43;77.60;;;25.60;;
39740;SDS011;25426;53.478;10.190;2022-09-09T03:11:16;111.75;;;27.52;;
39740;SDS011;25426;53.478;10.190;2022-09-09T03:13:47;230.00;;;35.40;;
39740;SDS011;25426;53.478;10.190;2022-09-09T03:16:19;103.20;;;26.48;;
39740;SDS011;25426;53.478;10.190;2022-09-09T03:18:54;121.40;;;27.63;;
39740;SDS011;25426;53.478;10.190;2022-09-09T03:21:25;145.40;;;28.73;;
39740;SDS011;25426;53.478;10.190;2022-09-09T03:23:57;160.13;;;31.65;;
39740;SDS011;25426;53.478;10.190;2022-09-09T03:26:29;80.60;;;23.58;;
39740;SDS011;25426;53.478;10.190;2022-09-09T03:29:00;79.18;;;24.00;;
39740;SDS011;25426;53.478;10.190;2022-09-09T03:31:33;78.93;;;22.95;;
39740;SDS011;25426;53.478;10.190;2022-09-09T03:34:06;111.30;;;27.50;;
39740;SDS011;25426;53.478;10.190;2022-09-09T03:36:39;142.32;;;28.42;;
39740;SDS011;25426;53.478;10.190;2022-09-09T03:39:11;106.50;;;26.35;;
39740;SDS011;25426;53.478;10.190;2022-09-09T03:41:44;141.52;;;27.35;;
39740;SDS011;25426;53.478;10.190;2022-09-09T03:44:18;119.85;;;27.48;;
39740;SDS011;25426;53.478;10.190;2022-09-09T03:46:50;108.97;;;25.27;;
39740;SDS011;25426;53.478;10.190;2022-09-09T03:49:21;104.65;;;25.60;;
39740;SDS011;25426;53.478;10.190;2022-09-09T03:51:54;175.27;;;29.83;;
39740;SDS011;25426;53.478;10.190;2022-09-09T03:54:27;98.28;;;25.75;;
39740;SDS011;25426;53.478;10.190;2022-09-09T03:56:59;109.78;;;24.73;;
39740;SDS011;25426;53.478;10.190;2022-09-09T03:59:30;142.40;;;27.77;;
39740;SDS011;25426;53.478;10.190;2022-09-09T04:02:02;111.38;;;24.95;;
39740;SDS011;25426;53.478;10.190;2022-09-09T04:04:34;125.32;;;26.20;;
39740;SDS011;25426;53.478;10.190;2022-09-09T04:07:05;143.77;;;31.15;;
39740;SDS011;25426;53.478;10.190;2022-09-09T04:09:37;90.05;;;23.73;;
39740;SDS011;25426;53.478;10.190;2022-09-09T04:12:08;125.70;;;29.92;;
39740;SDS011;25426;53.478;10.190;2022-09-09T04:14:43;126.43;;;27.20;;
39740;SDS011;25426;53.478;10.190;2022-09-09T04:17:14;84.63;;;24.52;;
39740;SDS011;25426;53.478;10.190;2022-09-09T04:19:46;51.95;;;19.10;;
39740;SDS011;25426;53.478;10.190;2022-09-09T04:22:17;98.45;;;26.85;;
39740;SDS011;25426;53.478;10.190;2022-09-09T04:24:48;108.13;;;27.67;;
39740;SDS011;25426;53.478;10.190;2022-09-09T04:27:21;159.50;;;33.15;;
39740;SDS011;25426;53.478;10.190;2022-09-09T04:29:52;74.35;;;24.45;;
39740;SDS011;25426;53.478;10.190;2022-09-09T04:32:23;60.45;;;22.48;;
39740;SDS011;25426;53.478;10.190;2022-09-09T04:34:57;98.45;;;28.40;;
39740;SDS011;25426;53.478;10.190;2022-09-09T04:37:28;92.07;;;26.17;;
39740;SDS011;25426;53.478;10.190;2022-09-09T04:39:59;39.78;;;21.45;;
39740;SDS011;25426;53.478;10.190;2022-09-09T04:42:37;51.95;;;23.00;;
39740;SDS011;25426;53.478;10.190;2022-09-09T04:45:09;51.53;;;24.13;;
39740;SDS011;25426;53.478;10.190;2022-09-09T04:47:41;35.33;;;21.10;;
39740;SDS011;25426;53.478;10.190;2022-09-09T04:50:12;30.73;;;19.77;;
39740;SDS011;25426;53.478;10.190;2022-09-09T04:52:44;30.92;;;19.88;;
39740;SDS011;25426;53.478;10.190;2022-09-09T04:55:15;41.83;;;23.85;;
39740;SDS011;25426;53.478;10.190;2022-09-09T04:57:48;36.75;;;22.48;;
39740;SDS011;25426;53.478;10.190;2022-09-09T05:00:19;37.33;;;21.35;;
39740;SDS011;25426;53.478;10.190;2022-09-09T05:02:51;29.15;;;19.63;;
39740;SDS011;25426;53.478;10.190;2022-09-09T05:05:22;37.15;;;22.80;;
39740;SDS011;25426;53.478;10.190;2022-09-09T05:07:53;34.78;;;19.45;;
39740;SDS011;25426;53.478;10.190;2022-09-09T05:10:24;41.45;;;21.88;;
39740;SDS011;25426;53.478;10.190;2022-09-09T05:12:56;37.22;;;20.83;;
39740;SDS011;25426;53.478;10.190;2022-09-09T05:15:30;26.42;;;18.83;;
39740;SDS011;25426;53.478;10.190;2022-09-09T05:18:01;27.98;;;18.50;;
39740;SDS011;25426;53.478;10.190;2022-09-09T05:20:35;33.40;;;20.33;;
39740;SDS011;25426;53.478;10.190;2022-09-09T05:23:07;34.05;;;19.33;;
39740;SDS011;25426;53.478;10.190;2022-09-09T05:25:41;25.88;;;17.55;;
39740;SDS011;25426;53.478;10.190;2022-09-09T05:28:12;27.45;;;18.42;;
39740;SDS011;25426;53.478;10.190;2022-09-09T05:30:44;30.15;;;18.75;;
39740;SDS011;25426;53.478;10.190;2022-09-09T05:33:15;28.35;;;17.73;;
39740;SDS011;25426;53.478;10.190;2022-09-09T05:35:46;34.05;;;19.38;;
39740;SDS011;25426;53.478;10.190;2022-09-09T05:38:17;28.83;;;18.27;;
39740;SDS011;25426;53.478;10.190;2022-09-09T05:40:48;24.02;;;17.83;;
39740;SDS011;25426;53.478;10.190;2022-09-09T05:43:20;26.95;;;19.10;;
39740;SDS011;25426;53.478;10.190;2022-09-09T05:48:42;23.20;;;16.60;;
39740;SDS011;25426;53.478;10.190;2022-09-09T05:51:20;26.08;;;17.45;;
39740;SDS011;25426;53.478;10.190;2022-09-09T05:53:55;21.30;;;16.30;;
39740;SDS011;25426;53.478;10.190;2022-09-09T05:56:29;21.88;;;16.25;;
39740;SDS011;25426;53.478;10.190;2022-09-09T05:59:02;25.50;;;17.30;;
39740;SDS011;25426;53.478;10.190;2022-09-09T06:01:35;19.50;;;15.05;;
39740;SDS011;25426;53.478;10.190;2022-09-09T06:04:10;21.27;;;15.95;;
39740;SDS011;25426;53.478;10.190;2022-09-09T06:06:43;22.20;;;15.75;;
39740;SDS011;25426;53.478;10.190;2022-09-09T06:09:17;17.45;;;14.20;;
39740;SDS011;25426;53.478;10.190;2022-09-09T06:11:48;19.48;;;14.07;;
39740;SDS011;25426;53.478;10.190;2022-09-09T06:14:19;17.65;;;14.73;;
39740;SDS011;25426;53.478;10.190;2022-09-09T06:16:53;17.40;;;13.70;;
39740;SDS011;25426;53.478;10.190;2022-09-09T06:19:27;17.17;;;13.35;;
39740;SDS011;25426;53.478;10.190;2022-09-09T06:22:00;15.52;;;12.10;;
39740;SDS011;25426;53.478;10.190;2022-09-09T06:24:33;17.50;;;12.57;;
39740;SDS011;25426;53.478;10.190;2022-09-09T06:27:06;15.05;;;12.48;;
39740;SDS011;25426;53.478;10.190;2022-09-09T06:29:40;12.90;;;11.00;;
39740;SDS011;25426;53.478;10.190;2022-09-09T06:32:11;14.15;;;10.40;;
39740;SDS011;25426;53.478;10.190;2022-09-09T06:34:42;13.98;;;11.82;;
39740;SDS011;25426;53.478;10.190;2022-09-09T06:37:14;12.95;;;10.57;;
39740;SDS011;25426;53.478;10.190;2022-09-09T06:39:50;12.10;;;10.23;;
39740;SDS011;25426;53.478;10.190;2022-09-09T06:42:22;12.35;;;10.20;;
39740;SDS011;25426;53.478;10.190;2022-09-09T06:44:53;10.43;;;9.43;;
39740;SDS011;25426;53.478;10.190;2022-09-09T06:47:48;11.15;;;9.43;;
39740;SDS011;25426;53.478;10.190;2022-09-09T06:50:19;11.70;;;9.25;;
39740;SDS011;25426;53.478;10.190;2022-09-09T06:52:52;11.48;;;8.52;;
39740;SDS011;25426;53.478;10.190;2022-09-09T06:55:23;10.82;;;8.73;;
39740;SDS011;25426;53.478;10.190;2022-09-09T06:57:55;10.10;;;9.10;;
39740;SDS011;25426;53.478;10.190;2022-09-09T07:00:27;9.43;;;8.50;;
39740;SDS011;25426;53.478;10.190;2022-09-09T07:02:59;9.70;;;7.82;;
39740;SDS011;25426;53.478;10.190;2022-09-09T07:05:31;7.25;;;6.55;;
39740;SDS011;25426;53.478;10.190;2022-09-09T07:08:02;8.27;;;7.18;;
39740;SDS011;25426;53.478;10.190;2022-09-09T07:10:34;8.77;;;7.15;;
39740;SDS011;25426;53.478;10.190;2022-09-09T07:13:05;8.35;;;5.35;;
39740;SDS011;25426;53.478;10.190;2022-09-09T07:15:37;6.95;;;5.25;;
39740;SDS011;25426;53.478;10.190;2022-09-09T07:18:09;7.97;;;4.97;;
39740;SDS011;25426;53.478;10.190;2022-09-09T07:20:40;5.70;;;4.95;;
39740;SDS011;25426;53.478;10.190;2022-09-09T07:23:11;8.35;;;5.38;;
39740;SDS011;25426;53.478;10.190;2022-09-09T07:25:46;4.82;;;4.43;;
39740;SDS011;25426;53.478;10.190;2022-09-09T07:28:19;10.85;;;5.40;;
39740;SDS011;25426;53.478;10.190;2022-09-09T07:30:55;6.53;;;5.32;;
39740;SDS011;25426;53.478;10.190;2022-09-09T07:33:30;7.32;;;4.32;;
39740;SDS011;25426;53.478;10.190;2022-09-09T07:36:08;4.07;;;3.42;;
39740;SDS011;25426;53.478;10.190;2022-09-09T07:38:54;4.50;;;3.33;;
39740;SDS011;25426;53.478;10.190;2022-09-09T07:41:31;5.05;;;3.35;;
39740;SDS011;25426;53.478;10.190;2022-09-09T07:44:17;6.85;;;3.53;;
39740;SDS011;25426;53.478;10.190;2022-09-09T07:46:55;4.10;;;3.35;;
39740;SDS011;25426;53.478;10.190;2022-09-09T07:49:31;7.60;;;2.95;;
39740;SDS011;25426;53.478;10.190;2022-09-09T07:52:03;5.15;;;3.17;;
39740;SDS011;25426;53.478;10.190;2022-09-09T07:54:35;5.22;;;2.67;;
39740;SDS011;25426;53.478;10.190;2022-09-09T07:57:09;3.25;;;2.58;;
39740;SDS011;25426;53.478;10.190;2022-09-09T07:59:41;6.45;;;3.17;;
39740;SDS011;25426;53.478;10.190;2022-09-09T08:02:12;5.60;;;2.60;;
39740;SDS011;25426;53.478;10.190;2022-09-09T08:04:44;3.83;;;2.67;;
39740;SDS011;25426;53.478;10.190;2022-09-09T08:07:15;5.88;;;3.22;;
39740;SDS011;25426;53.478;10.190;2022-09-09T08:09:52;3.38;;;2.25;;
39740;SDS011;25426;53.478;10.190;2022-09-09T08:12:29;3.63;;;2.65;;
39740;SDS011;25426;53.478;10.190;2022-09-09T08:15:01;8.48;;;2.95;;
39740;SDS011;25426;53.478;10.190;2022-09-09T08:17:36;6.30;;;3.15;;
39740;SDS011;25426;53.478;10.190;2022-09-09T08:20:10;4.00;;;2.88;;
39740;SDS011;25426;53.478;10.190;2022-09-09T08:22:42;4.28;;;2.65;;
39740;SDS011;25426;53.478;10.190;2022-09-09T08:25:13;4.38;;;3.03;;
39740;SDS011;25426;53.478;10.190;2022-09-09T08:27:45;4.25;;;3.00;;
39740;SDS011;25426;53.478;10.190;2022-09-09T08:30:17;6.28;;;2.95;;
39740;SDS011;25426;53.478;10.190;2022-09-09T08:32:48;4.55;;;2.58;;
39740;SDS011;25426;53.478;10.190;2022-09-09T08:35:21;5.80;;;2.75;;
39740;SDS011;25426;53.478;10.190;2022-09-09T08:37:54;3.83;;;2.63;;
39740;SDS011;25426;53.478;10.190;2022-09-09T08:40:26;4.00;;;2.15;;
39740;SDS011;25426;53.478;10.190;2022-09-09T08:43:02;5.78;;;2.67;;
39740;SDS011;25426;53.478;10.190;2022-09-09T08:45:35;3.97;;;2.08;;
39740;SDS011;25426;53.478;10.190;2022-09-09T08:48:24;3.15;;;2.13;;
39740;SDS011;25426;53.478;10.190;2022-09-09T08:51:29;4.10;;;2.75;;
39740;SDS011;25426;53.478;10.190;2022-09-09T08:54:02;3.53;;;2.08;;
39740;SDS011;25426;53.478;10.190;2022-09-09T08:56:35;2.08;;;1.85;;
39740;SDS011;25426;53.478;10.190;2022-09-09T08:59:07;3.58;;;2.13;;
39740;SDS011;25426;53.478;10.190;2022-09-09T09:01:57;3.08;;;2.25;;
39740;SDS011;25426;53.478;10.190;2022-09-09T09:05:37;4.55;;;2.35;;
39740;SDS011;25426;53.478;10.190;2022-09-09T09:08:44;4.28;;;2.13;;
39740;SDS011;25426;53.478;10.190;2022-09-09T09:12:01;4.78;;;2.50;;
39740;SDS011;25426;53.478;10.190;2022-09-09T09:14:49;3.13;;;2.03;;
39740;SDS011;25426;53.478;10.190;2022-09-09T09:17:22;4.78;;;1.77;;
39740;SDS011;25426;53.478;10.190;2022-09-09T09:19:56;2.53;;;1.98;;
39740;SDS011;25426;53.478;10.190;2022-09-09T09:22:39;3.60;;;1.88;;
39740;SDS011;25426;53.478;10.190;2022-09-09T09:25:23;4.25;;;2.00;;
39740;SDS011;25426;53.478;10.190;2022-09-09T09:30:52;4.60;;;2.10;;
39740;SDS011;25426;53.478;10.190;2022-09-09T09:33:47;6.25;;;2.10;;
39740;SDS011;25426;53.478;10.190;2022-09-09T09:37:00;2.53;;;2.08;;
39740;SDS011;25426;53.478;10.190;2022-09-09T09:42:13;5.10;;;1.83;;
39740;SDS011;25426;53.478;10.190;2022-09-09T09:44:50;2.85;;;1.77;;
39740;SDS011;25426;53.478;10.190;2022-09-09T09:47:24;2.28;;;1.48;;
39740;SDS011;25426;53.478;10.190;2022-09-09T09:50:19;1.88;;;1.67;;
39740;SDS011;25426;53.478;10.190;2022-09-09T09:52:54;2.50;;;1.48;;
39740;SDS011;25426;53.478;10.190;2022-09-09T09:55:32;3.92;;;1.90;;
39740;SDS011;25426;53.478;10.190;2022-09-09T09:58:06;3.28;;;1.73;;
39740;SDS011;25426;53.478;10.190;2022-09-09T10:00:52;6.93;;;2.17;;
39740;SDS011;25426;53.478;10.190;2022-09-09T10:03:31;3.65;;;1.80;;
39740;SDS011;25426;53.478;10.190;2022-09-09T10:06:08;6.10;;;2.10;;
39740;SDS011;25426;53.478;10.190;2022-09-09T10:08:46;2.92;;;1.52;;
39740;SDS011;25426;53.478;10.190;2022-09-09T10:14:21;3.40;;;1.45;;
39740;SDS011;25426;53.478;10.190;2022-09-09T10:17:12;3.42;;;1.77;;
39740;SDS011;25426;53.478;10.190;2022-09-09T10:20:32;4.05;;;1.35;;
39740;SDS011;25426;53.478;10.190;2022-09-09T10:23:49;3.40;;;1.55;;
39740;SDS011;25426;53.478;10.190;2022-09-09T10:32:54;2.72;;;1.38;;
39740;SDS011;25426;53.478;10.190;2022-09-09T10:35:56;5.20;;;1.80;;
39740;SDS011;25426;53.478;10.190;2022-09-09T10:39:00;5.38;;;1.70;;
39740;SDS011;25426;53.478;10.190;2022-09-09T10:42:06;3.13;;;1.38;;
39740;SDS011;25426;53.478;10.190;2022-09-09T10:48:21;5.75;;;1.63;;
39740;SDS011;25426;53.478;10.190;2022-09-09T10:51:42;2.90;;;1.40;;
39740;SDS011;25426;53.478;10.190;2022-09-09T10:55:17;3.92;;;1.73;;
39740;SDS011;25426;53.478;10.190;2022-09-09T10:57:51;3.17;;;1.80;;
39740;SDS011;25426;53.478;10.190;2022-09-09T11:00:31;3.60;;;1.65;;
39740;SDS011;25426;53.478;10.190;2022-09-09T11:03:18;3.05;;;1.40;;
39740;SDS011;25426;53.478;10.190;2022-09-09T11:05:57;4.10;;;1.85;;
39740;SDS011;25426;53.478;10.190;2022-09-09T11:08:49;3.53;;;1.67;;
39740;SDS011;25426;53.478;10.190;2022-09-09T11:15:49;2.70;;;1.75;;
39740;SDS011;25426;53.478;10.190;2022-09-09T11:18:34;5.45;;;2.10;;
39740;SDS011;25426;53.478;10.190;2022-09-09T11:21:14;3.03;;;1.55;;
39740;SDS011;25426;53.478;10.190;2022-09-09T11:24:02;4.60;;;1.70;;
39740;SDS011;25426;53.478;10.190;2022-09-09T11:36:31;2.95;;;1.25;;
39740;SDS011;25426;53.478;10.190;2022-09-09T11:39:49;3.85;;;1.60;;
39740;SDS011;25426;53.478;10.190;2022-09-09T11:43:05;2.58;;;1.27;;
39740;SDS011;25426;53.478;10.190;2022-09-09T11:45:51;2.47;;;1.50;;
39740;SDS011;25426;53.478;10.190;2022-09-09T11:48:41;3.60;;;1.60;;
39740;SDS011;25426;53.478;10.190;2022-09-09T11:54:04;3.67;;;1.98;;
39740;SDS011;25426;53.478;10.190;2022-09-09T11:57:14;4.10;;;2.05;;
39740;SDS011;25426;53.478;10.190;2022-09-09T12:00:03;4.85;;;2.47;;
39740;SDS011;25426;53.478;10.190;2022-09-09T12:02:48;5.05;;;2.22;;
39740;SDS011;25426;53.478;10.190;2022-09-09T12:05:20;6.10;;;2.40;;
39740;SDS011;25426;53.478;10.190;2022-09-09T12:07:52;4.00;;;2.30;;
39740;SDS011;25426;53.478;10.190;2022-09-09T12:10:29;4.00;;;2.08;;
39740;SDS011;25426;53.478;10.190;2022-09-09T12:13:16;3.92;;;2.10;;
39740;SDS011;25426;53.478;10.190;2022-09-09T12:15:54;3.17;;;2.13;;
39740;SDS011;25426;53.478;10.190;2022-09-09T12:18:36;4.45;;;2.10;;
39740;SDS011;25426;53.478;10.190;2022-09-09T12:24:51;3.35;;;2.13;;
39740;SDS011;25426;53.478;10.190;2022-09-09T12:28:15;3.22;;;1.90;;
39740;SDS011;25426;53.478;10.190;2022-09-09T12:30:55;3.17;;;2.60;;
39740;SDS011;25426;53.478;10.190;2022-09-09T12:33:44;4.10;;;2.30;;
39740;SDS011;25426;53.478;10.190;2022-09-09T12:36:24;4.80;;;2.20;;
39740;SDS011;25426;53.478;10.190;2022-09-09T12:39:09;3.58;;;2.25;;
39740;SDS011;25426;53.478;10.190;2022-09-09T12:41:53;5.80;;;2.78;;
39740;SDS011;25426;53.478;10.190;2022-09-09T12:44:26;4.75;;;2.50;;
39740;SDS011;25426;53.478;10.190;2022-09-09T12:47:02;5.03;;;2.63;;
39740;SDS011;25426;53.478;10.190;2022-09-09T12:49:35;4.80;;;2.92;;
39740;SDS011;25426;53.478;10.190;2022-09-09T12:52:13;3.88;;;2.50;;
39740;SDS011;25426;53.478;10.190;2022-09-09T12:55:06;4.03;;;2.30;;
39740;SDS011;25426;53.478;10.190;2022-09-09T12:57:38;3.55;;;2.35;;
39740;SDS011;25426;53.478;10.190;2022-09-09T13:00:14;4.60;;;2.42;;
39740;SDS011;25426;53.478;10.190;2022-09-09T13:02:51;4.15;;;1.95;;
39740;SDS011;25426;53.478;10.190;2022-09-09T13:05:36;3.83;;;1.98;;
39740;SDS011;25426;53.478;10.190;2022-09-09T13:08:11;4.53;;;1.98;;
39740;SDS011;25426;53.478;10.190;2022-09-09T13:10:51;4.18;;;1.83;;
39740;SDS011;25426;53.478;10.190;2022-09-09T13:13:37;5.03;;;1.75;;
39740;SDS011;25426;53.478;10.190;2022-09-09T13:16:25;3.88;;;2.00;;
39740;SDS011;25426;53.478;10.190;2022-09-09T13:19:07;4.57;;;2.03;;
39740;SDS011;25426;53.478;10.190;2022-09-09T13:21:46;8.38;;;2.20;;
39740;SDS011;25426;53.478;10.190;2022-09-09T13:24:33;4.32;;;2.22;;
39740;SDS011;25426;53.478;10.190;2022-09-09T13:27:17;10.13;;;2.80;;
39740;SDS011;25426;53.478;10.190;2022-09-09T13:33:04;7.03;;;2.90;;
39740;SDS011;25426;53.478;10.190;2022-09-09T13:35:46;4.80;;;3.10;;
39740;SDS011;25426;53.478;10.190;2022-09-09T13:38:23;5.20;;;2.65;;
39740;SDS011;25426;53.478;10.190;2022-09-09T13:40:56;3.75;;;2.50;;
39740;SDS011;25426;53.478;10.190;2022-09-09T13:43:43;4.75;;;2.35;;
39740;SDS011;25426;53.478;10.190;2022-09-09T13:46:36;5.70;;;2.80;;
39740;SDS011;25426;53.478;10.190;2022-09-09T13:51:50;7.38;;;3.50;;
39740;SDS011;25426;53.478;10.190;2022-09-09T13:54:32;5.72;;;3.17;;
39740;SDS011;25426;53.478;10.190;2022-09-09T13:57:03;5.93;;;2.42;;
39740;SDS011;25426;53.478;10.190;2022-09-09T13:59:34;6.05;;;2.53;;
39740;SDS011;25426;53.478;10.190;2022-09-09T14:02:07;5.65;;;2.83;;
39740;SDS011;25426;53.478;10.190;2022-09-09T14:04:38;6.85;;;3.80;;
39740;SDS011;25426;53.478;10.190;2022-09-09T14:07:12;6.05;;;3.22;;
39740;SDS011;25426;53.478;10.190;2022-09-09T14:09:51;6.88;;;3.47;;
39740;SDS011;25426;53.478;10.190;2022-09-09T14:12:32;9.57;;;3.63;;
39740;SDS011;25426;53.478;10.190;2022-09-09T14:30:50;8.60;;;3.50;;
39740;SDS011;25426;53.478;10.190;2022-09-09T14:51:24;5.88;;;3.60;;
39740;SDS011;25426;53.478;10.190;2022-09-09T14:53:58;6.13;;;3.05;;
39740;SDS011;25426;53.478;10.190;2022-09-09T14:56:31;5.65;;;2.63;;
39740;SDS011;25426;53.478;10.190;2022-09-09T14:59:06;4.13;;;2.90;;
39740;SDS011;25426;53.478;10.190;2022-09-09T15:01:37;5.35;;;3.00;;
39740;SDS011;25426;53.478;10.190;2022-09-09T15:04:10;6.93;;;2.47;;
39740;SDS011;25426;53.478;10.190;2022-09-09T15:06:44;2.97;;;2.20;;
39740;SDS011;25426;53.478;10.190;2022-09-09T15:09:35;4.57;;;1.90;;
39740;SDS011;25426;53.478;10.190;2022-09-09T15:12:07;3.22;;;1.70;;
39740;SDS011;25426;53.478;10.190;2022-09-09T15:14:38;3.42;;;2.50;;
39740;SDS011;25426;53.478;10.190;2022-09-09T15:17:09;2.55;;;1.95;;
39740;SDS011;25426;53.478;10.190;2022-09-09T15:19:40;4.38;;;2.53;;
39740;SDS011;25426;53.478;10.190;2022-09-09T15:22:12;5.20;;;2.88;;
39740;SDS011;25426;53.478;10.190;2022-09-09T15:24:43;5.10;;;2.90;;
39740;SDS011;25426;53.478;10.190;2022-09-09T15:27:14;5.93;;;2.92;;
39740;SDS011;25426;53.478;10.190;2022-09-09T15:29:45;5.75;;;2.75;;
39740;SDS011;25426;53.478;10.190;2022-09-09T15:32:17;6.10;;;3.20;;
39740;SDS011;25426;53.478;10.190;2022-09-09T15:34:48;7.47;;;3.40;;
39740;SDS011;25426;53.478;10.190;2022-09-09T15:37:21;2.63;;;2.35;;
39740;SDS011;25426;53.478;10.190;2022-09-09T15:39:52;4.43;;;2.85;;
39740;SDS011;25426;53.478;10.190;2022-09-09T15:42:25;4.05;;;2.83;;
39740;SDS011;25426;53.478;10.190;2022-09-09T15:45:00;5.00;;;3.22;;
39740;SDS011;25426;53.478;10.190;2022-09-09T15:47:32;3.60;;;2.63;;
39740;SDS011;25426;53.478;10.190;2022-09-09T15:50:03;5.20;;;2.72;;
39740;SDS011;25426;53.478;10.190;2022-09-09T15:52:34;5.30;;;2.50;;
39740;SDS011;25426;53.478;10.190;2022-09-09T15:55:06;7.50;;;2.83;;
39740;SDS011;25426;53.478;10.190;2022-09-09T15:57:41;6.28;;;2.85;;
39740;SDS011;25426;53.478;10.190;2022-09-09T16:00:21;3.30;;;2.72;;
39740;SDS011;25426;53.478;10.190;2022-09-09T16:02:58;5.38;;;2.80;;
39740;SDS011;25426;53.478;10.190;2022-09-09T16:05:32;5.57;;;3.10;;
39740;SDS011;25426;53.478;10.190;2022-09-09T16:08:10;11.77;;;3.85;;
39740;SDS011;25426;53.478;10.190;2022-09-09T16:10:41;7.97;;;3.40;;
39740;SDS011;25426;53.478;10.190;2022-09-09T16:13:13;14.35;;;4.68;;
39740;SDS011;25426;53.478;10.190;2022-09-09T16:15:44;10.02;;;3.47;;
39740;SDS011;25426;53.478;10.190;2022-09-09T16:18:15;6.05;;;3.35;;
39740;SDS011;25426;53.478;10.190;2022-09-09T16:21:02;3.92;;;2.67;;
39740;SDS011;25426;53.478;10.190;2022-09-09T16:23:35;6.68;;;3.75;;
39740;SDS011;25426;53.478;10.190;2022-09-09T16:26:10;5.05;;;3.85;;
39740;SDS011;25426;53.478;10.190;2022-09-09T16:28:45;6.18;;;3.45;;
39740;SDS011;25426;53.478;10.190;2022-09-09T16:31:17;5.85;;;3.72;;
39740;SDS011;25426;53.478;10.190;2022-09-09T16:33:52;4.80;;;3.40;;
39740;SDS011;25426;53.478;10.190;2022-09-09T16:36:34;4.70;;;3.67;;
39740;SDS011;25426;53.478;10.190;2022-09-09T16:39:30;9.57;;;3.97;;
39740;SDS011;25426;53.478;10.190;2022-09-09T16:42:01;5.35;;;4.50;;
39740;SDS011;25426;53.478;10.190;2022-09-09T16:44:40;5.20;;;4.60;;
39740;SDS011;25426;53.478;10.190;2022-09-09T16:47:12;4.68;;;4.10;;
39740;SDS011;25426;53.478;10.190;2022-09-09T16:49:45;6.70;;;4.93;;
39740;SDS011;25426;53.478;10.190;2022-09-09T16:52:20;3.40;;;2.95;;
39740;SDS011;25426;53.478;10.190;2022-09-09T16:54:51;5.00;;;3.30;;
39740;SDS011;25426;53.478;10.190;2022-09-09T16:57:22;3.95;;;3.38;;
39740;SDS011;25426;53.478;10.190;2022-09-09T16:59:54;5.97;;;4.03;;
39740;SDS011;25426;53.478;10.190;2022-09-09T17:02:29;4.90;;;4.03;;
39740;SDS011;25426;53.478;10.190;2022-09-09T17:05:00;8.73;;;4.15;;
39740;SDS011;25426;53.478;10.190;2022-09-09T17:07:31;5.53;;;4.15;;
39740;SDS011;25426;53.478;10.190;2022-09-09T17:10:02;6.97;;;4.30;;
39740;SDS011;25426;53.478;10.190;2022-09-09T17:12:42;5.10;;;4.50;;
39740;SDS011;25426;53.478;10.190;2022-09-09T17:15:14;8.07;;;4.65;;
39740;SDS011;25426;53.478;10.190;2022-09-09T17:17:51;7.20;;;4.65;;
39740;SDS011;25426;53.478;10.190;2022-09-09T17:20:24;7.93;;;4.45;;
39740;SDS011;25426;53.478;10.190;2022-09-09T17:22:55;5.80;;;4.22;;
39740;SDS011;25426;53.478;10.190;2022-09-09T17:25:26;8.75;;;5.55;;